createdAt,value
2018-05-15T00:01:30.593Z,52.85
2018-05-15T00:03:58.193Z,52.84
2018-05-15T00:06:25.820Z,53.13
2018-05-15T00:08:53.412Z,53.19
2018-05-15T00:11:21.037Z,53.84
2018-05-15T00:13:48.680Z,54.31
2018-05-15T00:16:16.314Z,54.46
2018-05-15T00:18:43.901Z,54.71
2018-05-15T00:21:11.530Z,55.30
2018-05-15T00:23:39.128Z,56.43
2018-05-15T00:26:06.743Z,56.93
2018-05-15T00:28:34.356Z,57.13
2018-05-15T00:31:01.972Z,56.83
2018-05-15T00:33:29.624Z,56.80
2018-05-15T00:35:57.240Z,57.14
2018-05-15T00:38:24.833Z,57.36
2018-05-15T00:40:52.510Z,57.48
2018-05-15T00:43:20.104Z,57.96
2018-05-15T00:45:47.688Z,58.09
2018-05-15T00:48:15.327Z,59.15
2018-05-15T00:50:43.005Z,59.39
2018-05-15T00:53:10.638Z,59.61
2018-05-15T00:55:44.629Z,60.27
2018-05-15T00:58:12.301Z,60.35
2018-05-15T01:00:39.890Z,59.68
2018-05-15T01:03:07.516Z,59.77
2018-05-15T01:05:35.106Z,59.68
2018-05-15T01:08:02.761Z,59.65
2018-05-15T01:10:30.368Z,60.56
2018-05-15T01:12:58.078Z,60.83
2018-05-15T01:15:25.700Z,60.66
2018-05-15T01:17:53.280Z,60.48
2018-05-15T01:20:20.968Z,59.79
2018-05-15T01:22:48.585Z,59.88
2018-05-15T01:25:16.212Z,59.89
2018-05-15T01:27:43.816Z,60.19
2018-05-15T01:30:11.445Z,59.99
2018-05-15T01:32:39.041Z,59.56
2018-05-15T01:35:06.788Z,59.80
2018-05-15T01:37:36.735Z,60.10
2018-05-15T01:40:04.568Z,60.57
2018-05-15T01:42:32.467Z,61.28
2018-05-15T01:45:00.792Z,61.82
2018-05-15T01:47:31.390Z,61.50
2018-05-15T01:49:59.240Z,61.50
2018-05-15T01:52:27.042Z,61.35
2018-05-15T01:54:55.162Z,61.48
2018-05-15T01:57:22.774Z,60.86
2018-05-15T01:59:50.409Z,61.42
2018-05-15T02:02:18.055Z,61.41
2018-05-15T02:04:45.739Z,61.52
2018-05-15T02:07:13.368Z,61.11
2018-05-15T02:09:41.000Z,61.60
2018-05-15T02:12:08.721Z,61.97
2018-05-15T02:14:36.374Z,61.95
2018-05-15T02:17:04.265Z,62.03
2018-05-15T02:19:31.872Z,61.56
2018-05-15T02:21:59.612Z,62.34
2018-05-15T02:24:27.234Z,62.22
2018-05-15T02:26:54.958Z,62.82
2018-05-15T02:29:22.743Z,63.05
2018-05-15T02:31:50.480Z,62.78
2018-05-15T02:34:18.473Z,62.81
2018-05-15T02:36:48.683Z,63.27
2018-05-15T02:39:16.766Z,62.88
2018-05-15T02:41:45.442Z,62.34
2018-05-15T02:44:16.446Z,62.76
2018-05-15T02:46:44.561Z,63.03
2018-05-15T02:49:12.310Z,63.17
2018-05-15T02:51:40.920Z,62.45
2018-05-15T02:54:10.242Z,61.79
2018-05-15T02:56:41.729Z,62.38
2018-05-15T02:59:09.493Z,63.75
2018-05-15T03:01:38.053Z,63.66
2018-05-15T03:04:05.746Z,63.77
2018-05-15T03:06:35.008Z,63.85
2018-05-15T03:09:11.624Z,64.11
2018-05-15T03:11:39.856Z,64.25
2018-05-15T03:14:08.267Z,64.17
2018-05-15T03:16:36.214Z,63.54
2018-05-15T03:19:03.891Z,63.37
2018-05-15T03:21:31.924Z,63.11
2018-05-15T03:23:59.723Z,64.02
2018-05-15T03:26:28.944Z,63.39
2018-05-15T03:28:56.745Z,63.88
2018-05-15T03:31:25.619Z,63.79
2018-05-15T03:33:53.534Z,63.19
2018-05-15T03:36:22.090Z,62.76
2018-05-15T03:38:50.745Z,62.40
2018-05-15T03:41:18.676Z,61.67
2018-05-15T03:43:46.328Z,62.04
2018-05-15T03:46:13.978Z,61.56
2018-05-15T03:48:42.077Z,61.56
2018-05-15T03:51:10.352Z,61.78
2018-05-15T03:53:40.357Z,61.46
2018-05-15T03:56:08.341Z,61.47
2018-05-15T03:58:36.343Z,61.17
2018-05-15T04:01:16.092Z,60.98
2018-05-15T04:03:55.829Z,61.82
2018-05-15T04:06:35.576Z,60.79
2018-05-15T04:09:06.364Z,60.64
2018-05-15T04:11:35.065Z,61.56
2018-05-15T04:14:03.788Z,60.86
2018-05-15T04:16:32.631Z,61.00
2018-05-15T04:19:00.512Z,60.50
2018-05-15T04:21:28.609Z,59.90
2018-05-15T04:23:56.617Z,59.44
2018-05-15T04:26:24.561Z,58.96
2018-05-15T04:28:53.756Z,58.95
2018-05-15T04:31:21.561Z,57.76
2018-05-15T04:33:49.333Z,59.76
2018-05-15T04:36:17.112Z,59.48
2018-05-15T04:38:45.674Z,57.11
2018-05-15T04:41:14.340Z,56.84
2018-05-15T04:43:42.348Z,56.88
2018-05-15T04:46:09.925Z,56.77
2018-05-15T04:48:37.538Z,57.11
2018-05-15T04:51:05.211Z,56.47
2018-05-15T04:53:32.847Z,56.10
2018-05-15T04:56:00.479Z,55.62
2018-05-15T04:58:28.128Z,55.65
2018-05-15T05:00:55.961Z,55.04
2018-05-15T05:03:24.037Z,56.04
2018-05-15T05:05:51.836Z,55.20
2018-05-15T05:08:19.613Z,54.97
2018-05-15T05:10:47.613Z,55.11
2018-05-15T05:13:15.301Z,55.23
2018-05-15T05:15:43.119Z,54.76
2018-05-15T05:18:10.789Z,54.27
2018-05-15T05:20:38.800Z,54.24
2018-05-15T05:23:06.701Z,54.80
2018-05-15T05:25:34.476Z,54.49
2018-05-15T05:28:02.137Z,54.59
2018-05-15T05:30:29.740Z,54.69
2018-05-15T05:32:57.556Z,53.95
2018-05-15T05:35:25.211Z,54.53
2018-05-15T05:37:52.905Z,54.25
2018-05-15T05:40:20.622Z,53.62
2018-05-15T05:42:48.329Z,53.54
2018-05-15T05:45:15.938Z,53.11
2018-05-15T05:47:43.625Z,52.93
2018-05-15T05:50:11.250Z,52.20
2018-05-15T05:52:38.937Z,53.06
2018-05-15T05:55:06.540Z,53.05
2018-05-15T05:57:34.169Z,52.71
2018-05-15T06:00:01.761Z,52.10
2018-05-15T06:02:29.520Z,51.66
2018-05-15T06:04:57.221Z,51.72
2018-05-15T06:07:24.877Z,51.54
2018-05-15T06:09:52.502Z,51.94
2018-05-15T06:12:20.180Z,51.53
2018-05-15T06:14:47.836Z,51.52
2018-05-15T06:17:15.456Z,51.09
2018-05-15T06:19:43.116Z,50.75
2018-05-15T06:22:10.770Z,50.87
2018-05-15T06:24:38.525Z,50.78
2018-05-15T06:27:06.100Z,50.61
2018-05-15T06:29:33.795Z,50.33
2018-05-15T06:32:01.350Z,50.52
2018-05-15T06:34:28.997Z,49.75
2018-05-15T06:36:56.616Z,49.86
2018-05-15T06:39:24.224Z,50.00
2018-05-15T06:41:51.842Z,50.17
2018-05-15T06:44:19.432Z,49.94
2018-05-15T06:46:47.065Z,50.37
2018-05-15T06:49:14.652Z,50.43
2018-05-15T06:51:42.305Z,50.12
2018-05-15T06:54:09.912Z,49.86
2018-05-15T06:56:37.533Z,48.98
2018-05-15T06:59:05.196Z,48.72
2018-05-15T07:01:32.842Z,48.16
2018-05-15T07:04:00.450Z,48.57
2018-05-15T07:06:28.150Z,47.47
2018-05-15T07:08:55.768Z,47.65
2018-05-15T07:11:23.353Z,47.68
2018-05-15T07:13:51.087Z,46.81
2018-05-15T07:16:18.710Z,47.03
2018-05-15T07:18:46.344Z,47.08
2018-05-15T07:21:13.937Z,47.49
2018-05-15T07:23:41.595Z,45.89
2018-05-15T07:26:09.185Z,46.96
2018-05-15T07:28:36.813Z,46.46
2018-05-15T07:31:04.513Z,46.67
2018-05-15T07:33:32.141Z,45.99
2018-05-15T07:35:59.764Z,46.47
2018-05-15T07:38:27.400Z,44.76
2018-05-15T07:40:54.993Z,45.32
2018-05-15T07:43:22.641Z,45.45
2018-05-15T07:45:50.241Z,45.59
2018-05-15T07:48:17.902Z,43.33
2018-05-15T07:50:45.502Z,45.06
2018-05-15T07:53:13.124Z,43.23
2018-05-15T07:55:40.741Z,44.04
2018-05-15T07:58:08.481Z,43.59
2018-05-15T08:00:36.086Z,42.56
2018-05-15T08:03:03.681Z,42.95
2018-05-15T08:05:31.297Z,43.03
2018-05-15T08:07:58.889Z,41.84
2018-05-15T08:10:26.630Z,42.74
2018-05-15T08:12:54.278Z,41.43
2018-05-15T08:15:21.885Z,41.39
2018-05-15T08:17:49.480Z,40.36
2018-05-15T08:20:17.144Z,40.06
2018-05-15T08:22:44.743Z,39.86
2018-05-15T08:25:12.369Z,39.86
2018-05-15T08:27:39.952Z,40.48
2018-05-15T08:30:07.580Z,40.52
2018-05-15T08:32:35.172Z,39.77
2018-05-15T08:35:02.822Z,39.65
2018-05-15T08:37:30.496Z,39.36
2018-05-15T08:39:58.094Z,38.66
2018-05-15T08:42:25.694Z,39.55
2018-05-15T08:44:53.367Z,39.48
2018-05-15T08:47:20.985Z,38.56
2018-05-15T08:49:48.632Z,39.29
2018-05-15T08:52:16.252Z,38.82
2018-05-15T08:54:43.856Z,38.77
2018-05-15T08:57:11.515Z,37.91
2018-05-15T08:59:39.110Z,37.73
2018-05-15T09:02:06.740Z,37.74
2018-05-15T09:04:34.401Z,37.64
2018-05-15T09:07:02.047Z,38.50
2018-05-15T09:09:29.783Z,37.82
2018-05-15T09:11:57.428Z,38.25
2018-05-15T09:14:25.029Z,37.24
2018-05-15T09:16:52.793Z,36.90
2018-05-15T09:19:20.458Z,36.33
2018-05-15T09:21:48.036Z,36.83
2018-05-15T09:24:15.641Z,36.56
2018-05-15T09:26:43.274Z,37.10
2018-05-15T09:29:11.037Z,36.06
2018-05-15T09:31:38.674Z,35.79
2018-05-15T09:34:07.216Z,37.49
2018-05-15T09:36:34.856Z,36.54
2018-05-15T09:39:02.468Z,37.81
2018-05-15T09:41:30.137Z,37.60
2018-05-15T09:43:57.708Z,37.96
2018-05-15T09:46:25.313Z,36.83
2018-05-15T09:48:52.969Z,35.63
2018-05-15T09:51:20.560Z,36.73
2018-05-15T09:53:48.238Z,35.95
2018-05-15T09:56:15.905Z,35.44
2018-05-15T09:58:43.664Z,32.79
2018-05-15T10:01:11.276Z,33.36
2018-05-15T10:03:38.915Z,33.93
2018-05-15T10:06:06.524Z,34.00
2018-05-15T10:08:34.140Z,35.40
2018-05-15T10:11:01.704Z,34.37
2018-05-15T10:13:30.245Z,34.51
2018-05-15T10:15:57.996Z,34.58
2018-05-15T10:18:25.685Z,33.06
2018-05-15T10:20:53.308Z,33.03
2018-05-15T10:23:20.933Z,33.18
2018-05-15T10:25:48.552Z,32.92
2018-05-15T10:28:16.205Z,33.82
2018-05-15T10:30:43.809Z,34.67
2018-05-15T10:33:11.437Z,33.65
2018-05-15T10:35:39.080Z,34.04
2018-05-15T10:38:06.701Z,31.19
2018-05-15T10:40:34.340Z,30.21
2018-05-15T10:43:02.005Z,30.87
2018-05-15T10:45:29.644Z,31.51
2018-05-15T10:47:57.242Z,32.45
2018-05-15T10:50:24.891Z,31.03
2018-05-15T10:52:52.557Z,31.10
2018-05-15T10:55:20.193Z,31.76
2018-05-15T10:57:47.821Z,31.41
2018-05-15T11:00:15.454Z,31.64
2018-05-15T11:02:43.061Z,29.99
2018-05-15T11:05:10.713Z,31.35
2018-05-15T11:07:38.472Z,32.02
2018-05-15T11:10:06.131Z,30.82
2018-05-15T11:12:33.764Z,30.39
2018-05-15T11:15:01.393Z,29.33
2018-05-15T11:17:28.989Z,29.33
2018-05-15T11:20:08.162Z,29.19
2018-05-15T11:22:47.385Z,29.52
2018-05-15T11:25:15.050Z,30.58
2018-05-15T11:27:42.637Z,30.25
2018-05-15T11:30:10.239Z,29.97
2018-05-15T11:32:37.886Z,30.60
2018-05-15T11:35:05.550Z,31.62
2018-05-15T11:37:33.205Z,32.27
2018-05-15T11:40:00.804Z,31.65
2018-05-15T11:42:28.594Z,30.47
2018-05-15T11:44:56.188Z,31.04
2018-05-15T11:47:23.937Z,30.00
2018-05-15T11:49:51.944Z,29.08
2018-05-15T11:52:20.071Z,31.18
2018-05-15T11:54:46.646Z,29.93
2018-05-15T11:57:14.288Z,27.63
2018-05-15T11:59:41.961Z,28.38
2018-05-15T12:02:09.525Z,28.69
2018-05-15T12:04:37.129Z,28.12
2018-05-15T12:07:04.776Z,28.36
2018-05-15T12:09:32.466Z,28.41
2018-05-15T12:12:00.073Z,29.89
2018-05-15T12:14:27.713Z,30.75
2018-05-15T12:16:55.302Z,28.94
2018-05-15T12:19:22.934Z,30.37
2018-05-15T12:21:50.633Z,30.46
2018-05-15T12:24:18.293Z,29.96
2018-05-15T12:26:45.900Z,31.25
2018-05-15T12:29:13.562Z,32.75
2018-05-15T12:31:41.193Z,31.89
2018-05-15T12:34:08.819Z,32.09
2018-05-15T12:36:36.438Z,32.90
2018-05-15T12:39:04.157Z,31.40
2018-05-15T12:41:31.910Z,31.30
2018-05-15T12:43:59.394Z,32.13
2018-05-15T12:46:27.015Z,33.66
2018-05-15T12:48:54.657Z,34.70
2018-05-15T12:51:22.273Z,35.17
2018-05-15T12:53:49.937Z,34.92
2018-05-15T12:56:17.545Z,33.24
2018-05-15T12:58:45.192Z,31.65
2018-05-15T13:01:12.901Z,32.10
2018-05-15T13:03:40.524Z,28.85
2018-05-15T13:06:08.160Z,29.27
2018-05-15T13:08:35.838Z,30.20
2018-05-15T13:11:03.486Z,31.01
2018-05-15T13:13:31.215Z,32.49
2018-05-15T13:15:58.857Z,33.30
2018-05-15T13:18:26.476Z,34.05
2018-05-15T13:20:54.118Z,33.83
2018-05-15T13:23:21.731Z,34.65
2018-05-15T13:25:49.376Z,32.76
2018-05-15T13:28:16.983Z,32.63
2018-05-15T13:30:44.623Z,32.46
2018-05-15T13:33:12.229Z,30.71
2018-05-15T13:35:39.880Z,30.38
2018-05-15T13:38:07.552Z,29.75
2018-05-15T13:40:35.301Z,28.97
2018-05-15T13:43:02.900Z,29.41
2018-05-15T13:45:30.641Z,28.65
2018-05-15T13:47:58.261Z,27.27
2018-05-15T13:50:25.971Z,29.49
2018-05-15T13:52:53.564Z,28.71
2018-05-15T13:55:21.229Z,29.07
2018-05-15T13:57:48.893Z,26.96
2018-05-15T14:00:16.513Z,28.32
2018-05-15T14:02:44.153Z,28.40
2018-05-15T14:05:11.780Z,27.94
2018-05-15T14:07:39.424Z,29.06
2018-05-15T14:10:07.041Z,30.54
2018-05-15T14:12:34.786Z,32.25
2018-05-15T14:15:02.377Z,33.06
2018-05-15T14:17:30.054Z,33.34
2018-05-15T14:19:57.694Z,33.12
2018-05-15T14:22:25.337Z,33.55
2018-05-15T14:24:52.933Z,34.08
2018-05-15T14:27:20.562Z,34.16
2018-05-15T14:29:48.185Z,33.53
2018-05-15T14:32:15.866Z,34.22
2018-05-15T14:34:43.461Z,34.11
2018-05-15T14:37:11.168Z,34.87
2018-05-15T14:39:38.774Z,33.15
2018-05-15T14:42:17.957Z,33.08
2018-05-15T14:44:45.558Z,31.04
2018-05-15T14:47:13.276Z,31.66
2018-05-15T14:49:40.905Z,31.62
2018-05-15T14:52:08.584Z,30.59
2018-05-15T14:54:36.297Z,31.10
2018-05-15T14:57:03.918Z,33.02
2018-05-15T14:59:31.558Z,32.92
2018-05-15T15:01:59.171Z,33.82
2018-05-15T15:04:26.841Z,32.82
2018-05-15T15:06:54.440Z,32.22
2018-05-15T15:09:22.118Z,29.55
2018-05-15T15:11:49.712Z,29.46
2018-05-15T15:14:17.357Z,27.14
2018-05-15T15:16:45.017Z,27.68
2018-05-15T15:19:12.673Z,25.98
2018-05-15T15:21:40.283Z,26.63
2018-05-15T15:24:07.923Z,25.23
2018-05-15T15:26:35.590Z,25.60
2018-05-15T15:29:03.289Z,26.66
2018-05-15T15:31:30.934Z,26.32
2018-05-15T15:33:58.549Z,26.71
2018-05-15T15:36:26.216Z,27.27
2018-05-15T15:38:53.813Z,28.77
2018-05-15T15:41:21.448Z,29.46
2018-05-15T15:43:49.132Z,30.55
2018-05-15T15:46:16.685Z,31.27
2018-05-15T15:48:44.288Z,30.20
2018-05-15T15:51:11.974Z,29.84
2018-05-15T15:53:39.573Z,29.74
2018-05-15T15:56:07.265Z,30.72
2018-05-15T15:58:34.880Z,28.61
2018-05-15T16:01:02.673Z,27.92
2018-05-15T16:03:30.271Z,27.97
2018-05-15T16:05:57.942Z,27.57
2018-05-15T16:08:25.683Z,28.00
2018-05-15T16:10:53.328Z,27.50
2018-05-15T16:13:21.073Z,27.25
2018-05-15T16:15:48.706Z,27.37
2018-05-15T16:18:16.341Z,26.95
2018-05-15T16:20:43.964Z,27.03
2018-05-15T16:23:11.606Z,26.74
2018-05-15T16:25:39.241Z,27.61
2018-05-15T16:28:06.898Z,26.46
2018-05-15T16:30:34.500Z,26.29
2018-05-15T16:33:02.156Z,26.61
2018-05-15T16:35:29.771Z,27.53
2018-05-15T16:37:57.414Z,28.09
2018-05-15T16:40:25.031Z,28.06
2018-05-15T16:42:52.700Z,28.38
2018-05-15T16:45:20.305Z,27.74
2018-05-15T16:47:47.897Z,28.79
2018-05-15T16:50:15.548Z,29.60
2018-05-15T16:52:43.179Z,29.78
2018-05-15T16:55:10.925Z,30.28
2018-05-15T16:57:38.549Z,30.78
2018-05-15T17:00:06.253Z,30.96
2018-05-15T17:02:33.928Z,31.10
2018-05-15T17:05:01.573Z,30.46
2018-05-15T17:07:29.195Z,30.65
2018-05-15T17:09:56.842Z,29.64
2018-05-15T17:12:24.622Z,29.25
2018-05-15T17:14:52.255Z,28.95
2018-05-15T17:17:19.899Z,29.35
2018-05-15T17:19:47.554Z,29.41
2018-05-15T17:22:15.175Z,29.87
2018-05-15T17:24:42.829Z,30.08
2018-05-15T17:27:10.473Z,29.72
2018-05-15T17:29:38.057Z,29.87
2018-05-15T17:32:05.720Z,30.24
2018-05-15T17:34:33.333Z,30.55
2018-05-15T17:37:01.094Z,31.03
2018-05-15T17:39:28.853Z,31.43
2018-05-15T17:41:56.489Z,31.00
2018-05-15T17:44:24.112Z,31.41
2018-05-15T17:46:51.830Z,31.65
2018-05-15T17:49:19.423Z,32.08
2018-05-15T17:51:47.083Z,32.72
2018-05-15T17:54:14.730Z,32.89
2018-05-15T17:56:42.381Z,33.32
2018-05-15T17:59:10.077Z,32.99
2018-05-15T18:01:37.763Z,33.71
2018-05-15T18:04:05.367Z,34.21
2018-05-15T18:06:33.018Z,34.51
2018-05-15T18:09:00.810Z,34.50
2018-05-15T18:11:28.424Z,34.29
2018-05-15T18:13:56.205Z,34.24
2018-05-15T18:16:24.017Z,34.56
2018-05-15T18:18:52.066Z,34.41
2018-05-15T18:21:19.723Z,35.09
2018-05-15T18:23:47.338Z,34.94
2018-05-15T18:26:15.209Z,35.01
2018-05-15T18:28:42.845Z,34.82
2018-05-15T18:31:10.452Z,35.07
2018-05-15T18:33:38.205Z,35.33
2018-05-15T18:36:05.854Z,34.83
2018-05-15T18:38:33.662Z,35.17
2018-05-15T18:41:01.282Z,35.07
2018-05-15T18:43:28.991Z,35.12
2018-05-15T18:45:56.603Z,35.64
2018-05-15T18:48:24.358Z,35.42
2018-05-15T18:50:52.012Z,35.58
2018-05-15T18:53:19.685Z,35.64
2018-05-15T18:55:47.299Z,35.81
2018-05-15T18:58:14.949Z,35.92
2018-05-15T19:00:42.577Z,35.91
2018-05-15T19:03:10.234Z,35.90
2018-05-15T19:05:38.038Z,36.14
2018-05-15T19:08:05.685Z,36.29
2018-05-15T19:10:33.337Z,36.73
2018-05-15T19:13:01.053Z,36.46
2018-05-15T19:15:28.714Z,36.44
2018-05-15T19:17:56.342Z,36.70
2018-05-15T19:20:24.181Z,36.71
2018-05-15T19:22:51.877Z,37.02
2018-05-15T19:25:19.544Z,36.57
2018-05-15T19:27:47.194Z,36.61
2018-05-15T19:30:14.875Z,37.19
2018-05-15T19:32:42.578Z,37.49
2018-05-15T19:35:10.213Z,38.06
2018-05-15T19:37:37.804Z,38.35
2018-05-15T19:40:10.806Z,39.13
2018-05-15T19:42:38.458Z,39.31
2018-05-15T19:45:06.109Z,39.40
2018-05-15T19:47:33.725Z,42.10
2018-05-15T19:50:01.412Z,42.60
2018-05-15T19:52:29.123Z,41.86
2018-05-15T19:54:56.769Z,40.26
2018-05-15T19:57:24.456Z,38.70
2018-05-15T19:59:52.123Z,37.98
2018-05-15T20:02:19.752Z,36.86
2018-05-15T20:04:47.457Z,37.56
2018-05-15T20:07:15.078Z,38.19
2018-05-15T20:09:42.734Z,37.05
2018-05-15T20:12:10.460Z,35.75
2018-05-15T20:14:38.069Z,34.81
2018-05-15T20:17:05.713Z,34.95
2018-05-15T20:19:33.358Z,34.32
2018-05-15T20:22:01.067Z,35.44
2018-05-15T20:24:28.675Z,37.04
2018-05-15T20:26:56.418Z,38.45
2018-05-15T20:29:24.278Z,39.69
2018-05-15T20:31:52.008Z,40.97
2018-05-15T20:34:19.623Z,41.29
2018-05-15T20:36:47.319Z,42.19
2018-05-15T20:39:15.013Z,42.80
2018-05-15T20:41:42.660Z,42.86
2018-05-15T20:44:10.274Z,43.24
2018-05-15T20:46:37.924Z,43.80
2018-05-15T20:49:05.547Z,44.40
2018-05-15T20:51:33.293Z,46.23
2018-05-15T20:54:00.967Z,46.37
2018-05-15T20:56:28.545Z,46.50
2018-05-15T20:58:56.200Z,46.61
2018-05-15T21:01:23.802Z,47.17
2018-05-15T21:03:51.436Z,47.64
2018-05-15T21:06:19.041Z,48.14
2018-05-15T21:08:46.738Z,48.79
2018-05-15T21:11:14.351Z,48.63
2018-05-15T21:13:42.057Z,48.71
2018-05-15T21:16:09.675Z,48.77
2018-05-15T21:18:37.367Z,49.33
2018-05-15T21:21:04.976Z,50.28
2018-05-15T21:23:32.607Z,50.96
2018-05-15T21:26:00.200Z,51.41
2018-05-15T21:28:27.834Z,51.80
2018-05-15T21:30:55.514Z,51.68
2018-05-15T21:33:23.150Z,50.93
2018-05-15T21:35:50.789Z,51.29
2018-05-15T21:38:18.461Z,51.10
2018-05-15T21:40:46.077Z,51.65
2018-05-15T21:43:13.691Z,52.17
2018-05-15T21:45:41.333Z,52.18
2018-05-15T21:48:08.931Z,52.73
2018-05-15T21:50:36.573Z,53.02
2018-05-15T21:53:04.176Z,53.21
2018-05-15T21:55:31.828Z,53.25
2018-05-15T21:57:59.537Z,53.57
2018-05-15T22:00:27.184Z,53.56
2018-05-15T22:02:54.931Z,54.24
2018-05-15T22:05:22.569Z,54.04
2018-05-15T22:07:50.249Z,53.97
2018-05-15T22:10:17.908Z,53.79
2018-05-15T22:12:57.395Z,52.86
2018-05-15T22:23:40.364Z,52.24
2018-05-15T22:26:08.021Z,51.16
2018-05-15T22:28:35.765Z,51.73
2018-05-15T22:31:03.373Z,51.68
2018-05-15T22:33:31.124Z,52.16
2018-05-15T22:35:58.716Z,53.33
2018-05-15T22:38:26.429Z,53.60
2018-05-15T22:40:54.013Z,53.55
2018-05-15T22:43:21.650Z,53.75
2018-05-15T22:45:49.418Z,54.06
2018-05-15T22:48:17.095Z,54.66
2018-05-15T22:50:44.688Z,54.90
2018-05-15T22:53:12.320Z,54.76
2018-05-15T22:55:39.996Z,54.43
2018-05-15T22:58:07.607Z,54.55
2018-05-15T23:00:35.289Z,55.33
2018-05-15T23:03:02.900Z,55.77
2018-05-15T23:05:30.542Z,55.53
2018-05-15T23:07:58.125Z,55.66
2018-05-15T23:10:25.776Z,55.63
2018-05-15T23:12:53.377Z,56.09
2018-05-15T23:15:21.039Z,55.40
2018-05-15T23:17:48.632Z,56.04
2018-05-15T23:20:16.280Z,55.91
2018-05-15T23:22:43.881Z,56.60
2018-05-15T23:25:11.569Z,56.73
2018-05-15T23:27:39.203Z,56.94
2018-05-15T23:30:06.823Z,56.64
2018-05-15T23:32:34.446Z,56.78
2018-05-15T23:35:02.101Z,57.47
2018-05-15T23:37:29.750Z,57.52
2018-05-15T23:39:57.496Z,57.56
2018-05-15T23:42:25.113Z,57.54
2018-05-15T23:44:52.735Z,57.34
2018-05-15T23:47:20.399Z,57.51
2018-05-15T23:49:48.045Z,57.39
2018-05-15T23:52:15.756Z,58.26
2018-05-15T23:54:43.352Z,57.76
2018-05-15T23:57:11.244Z,58.05
2018-05-15T23:59:38.837Z,57.85
